This is the latest recevied weather packets stored in our database for station/object F4ACR-10. If no packets are shown the sender has not sent any weather packets the latest 10 day(s).
| Time | Temp. | Humidity | Pressure | Rain* | Wind** | Luminosity | Snow |
|---|---|---|---|---|---|---|---|
| 1787585672 | 20.56° C | 96% | 1011.1 hPa | - | - | - | - |
| 1787585072 | 20.56° C | 96% | 1011.6 hPa | - | - | - | - |
| 1787584471 | 20.56° C | 94% | 1011 hPa | - | - | - | - |
| 1787583871 | 20.56° C | 95% | 1010.7 hPa | - | - | - | - |
| 1787583271 | 20.56° C | 95% | 1010.9 hPa | - | - | - | - |
| 1787582671 | 20.56° C | 92% | 1010.5 hPa | - | - | - | - |
| 1787582071 | 20.56° C | 93% | 1010.7 hPa | - | - | - | - |
| 1787581470 | 21.11° C | 88% | 1010.5 hPa | - | - | - | - |
| 1787580870 | 21.11° C | 87% | 1010.8 hPa | - | - | - | - |
| 1787580270 | 21.67° C | 86% | 1011 hPa | - | - | - | - |
| 1787579670 | 23.33° C | 82% | 1011.3 hPa | - | - | - | - |
| 1787579070 | 23.33° C | 77% | 1011.1 hPa | - | - | - | - |
| 1787578469 | 23.33° C | 82% | 1011.3 hPa | - | - | - | - |
| 1787577869 | 21.11° C | 92% | 1011.8 hPa | - | - | - | - |
| 1787577269 | 21.11° C | 95% | 1011.6 hPa | - | - | - | - |
| 1787576668 | 20.56° C | 96% | 1011.5 hPa | - | - | - | - |
| 1787576068 | 20° C | 97% | 1011.6 hPa | - | - | - | - |
| 1787575468 | 19.44° C | 100% | 1011.6 hPa | - | - | - | - |
| 1787574868 | 19.44° C | 100% | 1012 hPa | - | - | - | - |
| 1787574268 | 18.89° C | 98% | 1011.7 hPa | - | - | - | - |
| 1787573667 | 18.89° C | 90% | 1012 hPa | - | - | - | - |
| 1787573067 | 27.78° C | 46% | 1010.8 hPa | - | - | - | - |
| 1787572467 | 28.33° C | 45% | 1010.5 hPa | - | - | - | - |
| 1787571867 | 29.44° C | 42% | 1010.4 hPa | - | - | - | - |
| 1787571267 | 30° C | 41% | 1010.6 hPa | - | - | - | - |
* Rain since midnight (hover to see other rain measurements)
** Current wind speed in m/s (hover to see current wind gust speed)